Logo AVAMET
Benvolgut visitant, si us plau, ingressa Recuperar contrasenya
AVAMET paisatges

Xàbia Tossal Gros

Dades diàries. Acumulats / Últims 30 dies disponibles

Data Temperatura (°C) Humitat rel. (%) Pressió rel. (hPa) Vent (km/h) Precipitació
Mínima Mitjana Màxima Amplitud
tèrmica
Mínima Mitjana Màxima Mínima Mitjana Màxima Predom. Mitjana Ràfega
màxima
Total
(mm)
Índex-n
Mínima Mitjana Màxima Mínima Mitjana Màxima n
0 a 1
P0 max
mm 5'
Dades mensuals acumulades fins l'últim dia disponible
07/2020 20,0 21,1 22,1 23,1 23,1 26,1 30,9 10,9 40 83 99 1.010 1.016 1.022   19,1 59,5 9,6
Dades anuals acumulades fins l'últim dia disponible
2020 5,5 13,5 22,1 15,8 9,7 18,7 30,9 25,4 19 77 100 1.002 1.019 1.034   17,2 133,6 347,0
Últims 30 dies disponibles
14-07-2020 20,0     22,2     24,7 4,7 68 86 93 1.014 1.016 1.018 NW 15,4 40,2 2,2
13-07-2020 20,5     23,2     25,4 4,9 63 80 96 1.017 1.018 1.019 NE 17,4 45,1 0,0
12-07-2020 21,2     22,8     25,2 4,0 67 85 95 1.017 1.018 1.020 NW 17,2 43,5 1,2
11-07-2020 21,7     23,2     25,7 4,0 76 87 96 1.014 1.016 1.018 NW 21,7 51,5 0,0
10-07-2020 21,3     23,2     27,1 5,8 63 87 96 1.013 1.014 1.016 NW 20,9 46,7 0,0
09-07-2020 21,8     23,7     26,3 4,5 60 77 95 1.014 1.016 1.018 NE 17,2 49,9 0,0
08-07-2020 21,5     23,0     26,4 4,9 51 84 95 1.016 1.017 1.018 E 6,8 41,8 0,0
07-07-2020 22,1     24,2     27,6 5,5 48 71 93 1.014 1.015 1.016 SSW 18,0 43,5 0,0
06-07-2020 21,1     23,7     26,6 5,5 45 73 95 1.014 1.016 1.018 SW 20,3 45,1 0,0
05-07-2020 21,0     22,7     24,3 3,3 51 80 92 1.017 1.020 1.022 SSW 21,1 45,1 0,0
04-07-2020 20,7     21,7     23,1 2,4 81 92 99 1.019 1.021 1.022 SSW 23,2 48,3 0,0
03-07-2020 20,8     22,1     24,4 3,6 83 93 99 1.015 1.017 1.020 NNW 23,8 51,5 6,2 0,74 1,80
02-07-2020 21,3     23,6     27,6 6,3 73 91 99 1.011 1.013 1.015 NW 24,3 59,5 0,0
01-07-2020 20,7     24,1     30,9 10,2 40 83 98 1.010 1.011 1.013 NW 19,5 51,5 0,0
30-06-2020 20,4     23,0     26,8 6,4 63 86 99 1.011 1.014 1.016 SSO 12,7 43,5 0,2
29-06-2020 19,8     22,2     26,1 6,3 46 89 99 1.014 1.016 1.017 SSW 13,8 46,7 0,2
28-06-2020 19,9     22,0     24,8 4,9 69 90 98 1.015 1.017 1.019 SSW 19,2 45,1 0,0
27-06-2020 19,9     21,9     24,6 4,7 70 89 97 1.014 1.015 1.017 SSW 15,3 33,8 0,0
26-06-2020 19,6     22,3     25,1 5,5 50 79 98 1.012 1.014 1.016 NW 14,5 38,6 0,0
25-06-2020 19,6     22,6     25,6 6,0 53 76 98 1.014 1.016 1.018 NW 17,2 43,5 0,0
24-06-2020 19,1     21,8     25,6 6,5 51 75 93 1.016 1.017 1.018 NW 12,6 40,2 0,0
23-06-2020 20,3     21,7     23,5 3,2 64 75 87 1.016 1.019 1.020 SSW 21,7 41,8 0,0
22-06-2020 20,2     22,6     25,6 5,4 46 73 96 1.019 1.021 1.023 SSW 22,0 56,3 0,0
21-06-2020 19,7     21,9     25,4 5,7 79 85 92 1.019 1.021 1.022 SSW 12,1 32,2 0,0
20-06-2020 18,8     20,6     22,4 3,6 79 88 96 1.019 1.020 1.022 SSW 19,8 45,1 0,0
19-06-2020 18,6     19,8     21,9 3,3 83 91 96 1.016 1.018 1.020 SW 16,4 46,7 3,8 0,29 1,00
18-06-2020 18,2     19,5     21,6 3,4 84 92 98 1.013 1.014 1.017 NE 14,3 43,5 0,2
17-06-2020 17,4     18,9     21,3 3,9 84 95 99 1.014 1.015 1.017 NW 13,8 37,0 0,8
16-06-2020 17,6     19,4     24,3 6,7 68 90 99 1.015 1.017 1.019 NW 16,9 43,5 7,2
15-06-2020 19,0     21,7     25,6 6,6 31 63 86 1.018 1.019 1.021 NW 20,3 40,2 0,0
Últims 13 mesos disponibles
06/2020 12,9 18,2 20,4 20,6 17,1 24,1 27,7 14,8 51 79 95 1.005 1.014 1.021 SSW 18,0 77,2 33,8
05/2020 10,6 16,4 20,3 19,1 16,6 22,2 26,7 16,1 52 72 91 1.005 1.017 1.027 NW 17,2 67,6 15,4
04/2020 8,4 11,9 17,2 13,7 11,9 16,1 22,1 13,7 55 84 100 1.006 1.016 1.026 NW 14,4 93,3 45,6
03/2020 6,3 10,2 16,0 12,6 9,7 15,6 22,5 16,2 49 77 100 1.007 1.017 1.026 NW 19,5 114,3 52,4
02/2020 8,7 11,6 18,0 14,2 11,9 17,2 24,2 15,5 30 72 99 1.014 1.025 1.033 SW 15,1 54,7 4,0
01/2020 5,5 9,6 14,7 11,3 10,5 13,5 19,7 14,2 50 78 98 1.014 1.025 1.032 NW 18,1 133,6 186,2
12/2019 7,9 11,4 17,4 13,3 10,5 15,5 21,0 13,1 47 74 96 1.004 1.019 1.032 NW 18,8 99,8 71,0
11/2019 7,8 12,1 19,6 14,3 11,7 16,9 24,7 16,9 46 61 84 999 1.011 1.019 WNW 21,2 109,4 12,0
10/2019 11,2 17,1 20,8 19,0 15,0 21,6 28,4 17,2 51 75 95 1.008 1.016 1.022 SW 16,8 95,0 62,0
09/2019 12,2 19,4 22,8 21,7 19,9 24,2 29,1 16,9 61 84 97 1.010 1.017 1.023 NW 20,0 136,8 142,4
08/2019 17,4 21,7 24,4 24,0 23,6 27,0 35,2 17,8 50 81 92 1.011 1.016 1.020 NW 20,0 59,5 20,2
07/2019 20,1 21,9 25,3 24,4 24,2 27,8 33,7 13,6 46 74 88 1.006 1.014 1.021 NW 18,9 99,8 2,8
06/2019 13,1 17,5 24,9 20,2 17,0 23,5 31,2 18,1 47 73 91 1.009 1.015 1.022 NW 23,2 69,2 0,6
Tots els anys disponibles
2019 5,3 14,8 25,3 17,1 9,3 19,9 35,2 29,9 29 72 99 996 1.017 1.033 NW 18,8 160,9 601,8
2018 1,7 14,4 24,1 16,6 5,9 19,4 31,2 29,5 37 76 100 998 1.018 1.031 SW 8,5 160,9 518,2
2017 4,1 16,7 26,4 18,9 9,1 21,7 32,2 28,1 SSW 15,1 101,0 137,0
Temperatura (°C)
Humitat relativa (%)
Velocitat del vent i ràfega màxima (km/h)
Direcció del vent (°)
Pressió (hPa)
Precipitació (mm)
Nota sobre les dades: s'avisa a l'usuari de la provisionalitat i no oficialitat d'aquestes dades
Logo AVAMET blanc
Web allotjada a Sollutia
Llicència de Creative CommonsLa web d'AVAMET i els seus continguts estan subjectes a una llicència de
Reconeixement - No Comercial - Compartir igual
Últimes estacions: Vilamarxant - La Pedrera (Soci), Càlig (Ajuntament Soci), Quesa - Hotel La Rocha (Soci), Agres - Les Eres (Soci), la Vilavella - Ptda Forns (Soci), Miramar - Platja (Inforatge), San Fulgencio - Centre & San Fulgencio - Urb. La Marina (MeteOrihuela), Ontinyent - els Gínjols (Soci), Orba (Aj. Soci) - - -